createdAt,value
2022-11-24T00:02:19.080Z,100348.72
2022-11-24T00:04:45.707Z,100351.06
2022-11-24T00:07:12.416Z,100333.75
2022-11-24T00:09:38.989Z,100332.63
2022-11-24T00:12:05.585Z,100329.22
2022-11-24T00:14:32.375Z,100355.09
2022-11-24T00:16:59.090Z,100372.47
2022-11-24T00:19:26.134Z,100377.81
2022-11-24T00:21:53.000Z,100380.59
2022-11-24T00:24:19.546Z,100378.31
2022-11-24T00:26:46.236Z,100383.00
2022-11-24T00:29:12.850Z,100371.78
2022-11-24T00:31:43.534Z,100379.09
2022-11-24T00:34:13.805Z,100366.31
2022-11-24T00:36:41.537Z,100383.69
2022-11-24T00:39:11.991Z,100377.88
2022-11-24T00:41:39.037Z,100380.94
2022-11-24T00:44:05.878Z,100376.72
2022-11-24T00:46:32.805Z,100374.44
2022-11-24T00:49:00.725Z,100383.69
2022-11-24T00:51:29.775Z,100384.06
2022-11-24T00:53:58.824Z,100380.94
2022-11-24T00:56:26.569Z,100389.78
2022-11-24T00:58:53.187Z,100383.22
2022-11-24T01:01:23.222Z,100396.75
2022-11-24T01:03:50.533Z,100402.50
2022-11-24T01:06:19.978Z,100407.50
2022-11-24T01:08:47.295Z,100403.31
2022-11-24T01:11:17.945Z,100408.34
2022-11-24T01:13:46.633Z,100405.28
2022-11-24T01:16:15.414Z,100402.97
2022-11-24T01:18:42.136Z,100407.66
2022-11-24T01:21:10.414Z,100417.34
2022-11-24T01:23:37.598Z,100426.97
2022-11-24T01:26:06.346Z,100424.19
2022-11-24T01:28:33.284Z,100420.72
2022-11-24T01:31:01.562Z,100418.31
2022-11-24T01:33:28.547Z,100418.69
2022-11-24T01:35:55.309Z,100418.31
2022-11-24T01:38:21.947Z,100418.69
2022-11-24T01:40:48.785Z,100413.25
2022-11-24T01:43:18.021Z,100423.28
2022-11-24T01:45:45.456Z,100421.34
2022-11-24T01:48:24.459Z,100425.56
2022-11-24T01:51:06.049Z,100432.22
2022-11-24T01:53:32.682Z,100431.81
2022-11-24T01:55:59.580Z,100429.88
2022-11-24T01:58:31.324Z,100429.88
2022-11-24T02:00:57.969Z,100438.75
2022-11-24T02:03:32.499Z,100443.75
2022-11-24T02:06:03.856Z,100443.03
2022-11-24T02:08:44.046Z,100437.25
2022-11-24T02:11:10.588Z,100438.81
2022-11-24T02:13:39.852Z,100441.94
2022-11-24T02:16:10.406Z,100446.56
2022-11-24T02:18:39.002Z,100444.22
2022-11-24T02:21:06.543Z,100442.78
2022-11-24T02:23:41.110Z,100453.63
2022-11-24T02:26:27.402Z,100449.41
2022-11-24T02:28:54.162Z,100452.56
2022-11-24T02:31:20.729Z,100453.75
2022-11-24T02:33:50.092Z,100458.81
2022-11-24T02:36:17.895Z,100457.25
2022-11-24T02:38:44.560Z,100457.28
2022-11-24T02:41:16.910Z,100464.25
2022-11-24T02:43:48.693Z,100471.22
2022-11-24T02:46:15.391Z,100461.53
2022-11-24T02:48:41.941Z,100465.06
2022-11-24T02:51:08.698Z,100472.78
2022-11-24T02:53:35.431Z,100469.72
2022-11-24T02:56:02.029Z,100467.00
2022-11-24T02:58:28.615Z,100472.44
2022-11-24T03:00:55.260Z,100472.09
2022-11-24T03:03:22.147Z,100469.03
2022-11-24T03:05:48.780Z,100473.69
2022-11-24T03:08:15.403Z,100474.44
2022-11-24T03:10:42.409Z,100462.47
2022-11-24T03:13:09.004Z,100466.75
2022-11-24T03:15:36.393Z,100470.56
2022-11-24T03:18:03.078Z,100464.38
2022-11-24T03:20:30.117Z,100476.31
2022-11-24T03:22:56.970Z,100481.31
2022-11-24T03:25:23.626Z,100479.75
2022-11-24T03:27:50.217Z,100477.84
2022-11-24T03:30:16.876Z,100476.66
2022-11-24T03:32:43.502Z,100488.72
2022-11-24T03:35:10.068Z,100482.56
2022-11-24T03:37:37.294Z,100482.19
2022-11-24T03:40:04.255Z,100482.97
2022-11-24T03:42:30.797Z,100490.31
2022-11-24T03:44:57.341Z,100484.09
2022-11-24T03:47:23.904Z,100482.19
2022-11-24T03:49:50.486Z,100493.03
2022-11-24T03:52:17.049Z,100483.81
2022-11-24T03:54:43.667Z,100490.34
2022-11-24T03:57:10.291Z,100497.69
2022-11-24T03:59:36.873Z,100493.03
2022-11-24T04:02:03.529Z,100502.31
2022-11-24T04:04:30.205Z,100508.44
2022-11-24T04:06:56.960Z,100502.25
2022-11-24T04:09:23.533Z,100501.50
2022-11-24T04:12:10.571Z,100507.66
2022-11-24T04:14:37.408Z,100512.66
2022-11-24T04:17:04.314Z,100515.38
2022-11-24T04:19:31.156Z,100516.16
2022-11-24T04:21:57.716Z,100528.97
2022-11-24T04:24:24.307Z,100525.94
2022-11-24T04:26:50.750Z,100542.94
2022-11-24T04:29:17.242Z,100538.31
2022-11-24T04:31:43.811Z,100537.94
2022-11-24T04:34:11.284Z,100547.63
2022-11-24T04:36:37.773Z,100549.19
2022-11-24T04:39:19.938Z,100540.69
2022-11-24T04:41:50.734Z,100546.53
2022-11-24T04:44:17.328Z,100552.34
2022-11-24T04:46:43.943Z,100562.41
2022-11-24T04:49:11.789Z,100563.91
2022-11-24T04:51:40.279Z,100561.19
2022-11-24T04:54:07.478Z,100565.47
2022-11-24T04:56:34.437Z,100574.78
2022-11-24T04:59:06.656Z,100588.31
2022-11-24T05:01:34.703Z,100578.25
2022-11-24T05:04:01.252Z,100585.25
2022-11-24T05:06:27.808Z,100596.50
2022-11-24T05:08:54.754Z,100599.19
2022-11-24T05:11:21.250Z,100604.22
2022-11-24T05:13:47.788Z,100598.81
2022-11-24T05:16:14.402Z,100603.09
2022-11-24T05:18:41.166Z,100626.72
2022-11-24T05:21:07.761Z,100623.59
2022-11-24T05:23:34.261Z,100625.16
2022-11-24T05:26:01.571Z,100623.59
2022-11-24T05:28:28.715Z,100634.00
2022-11-24T05:30:59.213Z,100637.44
2022-11-24T05:33:28.554Z,100635.88
2022-11-24T05:35:55.184Z,100649.78
2022-11-24T05:38:23.764Z,100645.88
2022-11-24T05:40:50.263Z,100662.47
2022-11-24T05:43:17.099Z,100658.56
2022-11-24T05:45:44.545Z,100661.63
2022-11-24T05:48:13.767Z,100667.78
2022-11-24T05:50:40.536Z,100676.59
2022-11-24T05:53:10.268Z,100677.75
2022-11-24T05:55:37.515Z,100685.44
2022-11-24T05:58:06.582Z,100691.22
2022-11-24T06:00:34.859Z,100695.84
2022-11-24T06:03:01.963Z,100702.41
2022-11-24T06:05:29.458Z,100707.03
2022-11-24T06:07:56.362Z,100710.16
2022-11-24T06:10:24.585Z,100720.19
2022-11-24T06:12:51.598Z,100719.03
2022-11-24T06:15:18.413Z,100729.09
2022-11-24T06:17:45.077Z,100732.94
2022-11-24T06:20:12.851Z,100737.19
2022-11-24T06:22:39.448Z,100740.31
2022-11-24T06:25:06.213Z,100753.09
2022-11-24T06:27:32.762Z,100744.63
2022-11-24T06:29:59.392Z,100760.03
2022-11-24T06:32:26.006Z,100763.13
2022-11-24T06:34:52.540Z,100767.72
2022-11-24T06:37:19.171Z,100760.78
2022-11-24T06:39:45.744Z,100775.06
2022-11-24T06:42:12.379Z,100787.06
2022-11-24T06:44:39.414Z,100796.72
2022-11-24T06:47:05.933Z,100795.94
2022-11-24T06:49:32.479Z,100802.13
2022-11-24T06:51:59.038Z,100801.78
2022-11-24T06:54:25.604Z,100805.56
2022-11-24T06:56:57.383Z,100810.19
2022-11-24T06:59:23.914Z,100812.03
2022-11-24T07:01:52.534Z,100815.06
2022-11-24T07:04:19.558Z,100823.50
2022-11-24T07:06:46.511Z,100827.28
2022-11-24T07:09:14.285Z,100829.22
2022-11-24T07:11:41.442Z,100833.81
2022-11-24T07:14:08.382Z,100839.22
2022-11-24T07:16:34.953Z,100838.81
2022-11-24T07:19:02.050Z,100851.56
2022-11-24T07:21:30.586Z,100858.47
2022-11-24T07:23:57.877Z,100860.38
2022-11-24T07:26:25.868Z,100861.94
2022-11-24T07:28:52.708Z,100853.91
2022-11-24T07:31:21.645Z,100865.16
2022-11-24T07:33:50.220Z,100858.16
2022-11-24T07:36:16.984Z,100865.59
2022-11-24T07:38:43.533Z,100874.13
2022-11-24T07:41:11.960Z,100872.19
2022-11-24T07:43:38.996Z,100882.66
2022-11-24T07:46:07.528Z,100894.25
2022-11-24T07:48:34.604Z,100905.13
2022-11-24T07:51:02.500Z,100907.06
2022-11-24T07:53:29.227Z,100910.97
2022-11-24T07:55:58.189Z,100917.59
2022-11-24T07:58:28.881Z,100920.31
2022-11-24T08:00:59.027Z,100930.34
2022-11-24T08:03:25.806Z,100936.53
2022-11-24T08:08:45.341Z,100944.72
2022-11-24T08:11:14.443Z,100950.16
2022-11-24T08:13:41.296Z,100947.44
2022-11-24T08:16:11.364Z,100956.41
2022-11-24T08:18:38.890Z,100963.75
2022-11-24T08:21:06.761Z,100957.63
2022-11-24T08:23:35.035Z,100955.78
2022-11-24T08:26:08.897Z,100957.75
2022-11-24T08:28:35.663Z,100956.63
2022-11-24T08:31:04.910Z,100956.63
2022-11-24T08:33:31.843Z,100958.19
2022-11-24T08:36:04.409Z,100968.25
2022-11-24T08:38:30.971Z,100969.38
2022-11-24T08:41:03.561Z,100974.09
2022-11-24T08:43:30.541Z,100985.75
2022-11-24T08:46:08.273Z,100981.56
2022-11-24T08:48:35.792Z,100985.91
2022-11-24T08:51:09.098Z,100980.50
2022-11-24T08:53:35.744Z,100980.50
2022-11-24T08:56:03.876Z,100999.44
2022-11-24T08:58:31.345Z,101000.94
2022-11-24T09:01:06.627Z,101002.84
2022-11-24T09:03:34.518Z,100998.91
2022-11-24T09:06:02.369Z,101008.97
2022-11-24T09:08:30.912Z,101013.97
2022-11-24T09:11:02.124Z,101010.81
2022-11-24T09:13:28.867Z,101007.34
2022-11-24T09:15:56.406Z,101021.63
2022-11-24T09:18:26.350Z,101028.63
2022-11-24T09:21:06.965Z,101025.56
2022-11-24T09:23:34.144Z,101025.63
2022-11-24T09:26:11.230Z,101028.78
2022-11-24T09:28:37.932Z,101025.34
2022-11-24T09:31:07.821Z,101028.56
2022-11-24T09:33:36.837Z,101042.53
2022-11-24T09:36:04.264Z,101042.59
2022-11-24T09:38:31.407Z,101046.53
2022-11-24T09:41:15.234Z,101056.66
2022-11-24T09:43:56.778Z,101055.56
2022-11-24T09:46:27.607Z,101048.66
2022-11-24T09:48:57.265Z,101053.00
2022-11-24T09:51:28.765Z,101069.69
2022-11-24T09:54:02.663Z,101071.66
2022-11-24T09:56:33.324Z,101076.38
2022-11-24T09:59:21.280Z,101079.16
2022-11-24T10:01:48.985Z,101081.94
2022-11-24T10:08:09.565Z,101088.69
2022-11-24T10:11:00.145Z,101095.34
2022-11-24T10:13:57.736Z,101089.56
2022-11-24T10:17:07.743Z,101103.22
2022-11-24T10:19:55.250Z,101097.84
2022-11-24T10:22:46.583Z,101103.78
2022-11-24T10:25:56.419Z,101110.81
2022-11-24T10:29:21.435Z,101109.69
2022-11-24T10:39:12.619Z,101133.16
2022-11-24T10:42:00.686Z,101135.47
2022-11-24T10:48:07.765Z,101138.25
2022-11-24T10:50:38.136Z,101135.19
2022-11-24T10:53:15.162Z,101139.91
2022-11-24T10:56:00.902Z,101138.38
2022-11-24T10:58:38.271Z,101145.44
2022-11-24T11:01:14.441Z,101156.78
2022-11-24T11:03:50.167Z,101154.19
2022-11-24T11:06:29.734Z,101154.63
2022-11-24T11:09:06.430Z,101149.19
2022-11-24T11:11:34.324Z,101161.97
2022-11-24T11:14:04.846Z,101159.69
2022-11-24T11:16:36.334Z,101155.81
2022-11-24T11:19:20.311Z,101153.13
2022-11-24T11:22:02.950Z,101162.03
2022-11-24T11:24:30.082Z,101157.84
2022-11-24T11:27:03.328Z,101156.31
2022-11-24T11:35:12.182Z,101156.09
2022-11-24T11:37:38.825Z,101161.94
2022-11-24T11:40:14.842Z,101155.34
2022-11-24T11:43:02.474Z,101153.84
2022-11-24T11:45:35.914Z,101156.97
2022-11-24T11:48:02.937Z,101152.34
2022-11-24T11:51:14.759Z,101155.47
2022-11-24T11:53:36.909Z,101160.97
2022-11-24T11:56:25.892Z,101155.16
2022-11-24T11:59:12.873Z,101168.81
2022-11-24T12:01:55.100Z,101159.16
2022-11-24T12:04:29.083Z,101160.72
2022-11-24T12:07:01.160Z,101161.16
2022-11-24T12:09:45.987Z,101166.59
2022-11-24T12:12:33.013Z,101161.16
2022-11-24T12:15:10.541Z,101162.72
2022-11-24T12:17:46.880Z,101161.19
2022-11-24T12:20:46.643Z,101156.97
2022-11-24T12:23:28.160Z,101158.53
2022-11-24T12:26:25.270Z,101160.91
2022-11-24T12:29:19.253Z,101162.81
2022-11-24T12:32:09.816Z,101157.03
2022-11-24T12:34:58.468Z,101163.25
2022-11-24T12:37:52.844Z,101162.47
2022-11-24T12:40:46.580Z,101160.53
2022-11-24T12:43:23.066Z,101167.88
2022-11-24T12:46:17.487Z,101163.25
2022-11-24T12:49:10.139Z,101182.22
2022-11-24T12:54:41.369Z,101181.88
2022-11-24T12:57:25.325Z,101183.44
2022-11-24T13:00:17.138Z,101184.25
2022-11-24T13:03:04.179Z,101189.28
2022-11-24T13:05:46.194Z,101187.38
2022-11-24T13:08:29.625Z,101178.06
2022-11-24T13:11:21.920Z,101178.44
2022-11-24T13:14:05.560Z,101182.66
2022-11-24T13:16:38.650Z,101181.53
2022-11-24T13:19:22.095Z,101185.03
2022-11-24T13:21:53.643Z,101185.03
2022-11-24T13:24:26.558Z,101180.38
2022-11-24T13:27:37.899Z,101180.31
2022-11-24T13:30:36.743Z,101176.81
2022-11-24T13:33:29.388Z,101179.16
2022-11-24T13:36:32.235Z,101177.59
2022-11-24T13:39:27.594Z,101176.81
2022-11-24T13:41:52.359Z,101184.59
2022-11-24T13:44:24.905Z,101176.44
2022-11-24T13:47:04.813Z,101181.47
2022-11-24T13:49:40.789Z,101184.19
2022-11-24T13:52:36.278Z,101178.75
2022-11-24T13:55:16.058Z,101179.09
2022-11-24T13:58:52.339Z,101182.97
2022-11-24T14:01:33.659Z,101181.38
2022-11-24T14:04:33.551Z,101177.53
2022-11-24T14:07:09.235Z,101172.13
2022-11-24T14:09:42.119Z,101178.69
2022-11-24T14:12:16.840Z,101182.91
2022-11-24T14:14:45.037Z,101182.13
2022-11-24T14:17:22.369Z,101176.63
2022-11-24T14:19:51.559Z,101177.00
2022-11-24T14:22:21.450Z,101177.72
2022-11-24T14:24:58.898Z,101174.56
2022-11-24T14:27:31.181Z,101171.81
2022-11-24T14:30:01.490Z,101166.41
2022-11-24T14:32:28.827Z,101160.97
2022-11-24T14:34:58.911Z,101164.81
2022-11-24T14:37:25.509Z,101164.38
2022-11-24T14:39:52.113Z,101166.72
2022-11-24T14:42:25.444Z,101171.63
2022-11-24T14:44:56.437Z,101177.00
2022-11-24T14:47:31.673Z,101170.75
2022-11-24T14:50:09.566Z,101173.38
2022-11-24T14:52:36.569Z,101172.19
2022-11-24T14:55:21.767Z,101169.75
2022-11-24T14:57:49.260Z,101165.78
2022-11-24T15:00:18.127Z,101166.06
2022-11-24T15:02:48.472Z,101171.78
2022-11-24T15:05:16.411Z,101168.22
2022-11-24T15:07:46.437Z,101175.44
2022-11-24T15:10:33.769Z,101176.13
2022-11-24T15:13:03.217Z,101181.06
2022-11-24T15:15:33.603Z,101179.88
2022-11-24T15:18:01.906Z,101177.16
2022-11-24T15:20:41.552Z,101178.22
2022-11-24T15:23:31.096Z,101183.91
2022-11-24T15:26:17.984Z,101179.66
2022-11-24T15:28:46.845Z,101183.84
2022-11-24T15:31:14.267Z,101191.47
2022-11-24T15:33:42.221Z,101191.72
2022-11-24T15:36:08.864Z,101191.66
2022-11-24T15:38:35.340Z,101197.00
2022-11-24T15:41:01.999Z,101198.50
2022-11-24T15:43:38.329Z,101184.88
2022-11-24T15:46:06.076Z,101189.50
2022-11-24T15:48:33.813Z,101182.44
2022-11-24T15:51:03.054Z,101185.06
2022-11-24T15:53:32.646Z,101179.59
2022-11-24T15:56:01.417Z,101189.19
2022-11-24T15:58:28.006Z,101184.41
2022-11-24T16:00:54.884Z,101184.00
2022-11-24T16:03:46.258Z,101188.53
2022-11-24T16:06:13.110Z,101186.50
2022-11-24T16:08:39.756Z,101181.81
2022-11-24T16:11:06.469Z,101184.09
2022-11-24T16:13:33.040Z,101184.72
2022-11-24T16:15:59.817Z,101186.63
2022-11-24T16:18:26.425Z,101181.91
2022-11-24T16:20:52.943Z,101185.00
2022-11-24T16:23:19.546Z,101187.16
2022-11-24T16:25:46.205Z,101182.47
2022-11-24T16:28:12.716Z,101178.97
2022-11-24T16:30:39.249Z,101183.94
2022-11-24T16:33:06.740Z,101189.38
2022-11-24T16:35:33.949Z,101191.97
2022-11-24T16:38:00.552Z,101191.88
2022-11-24T16:40:39.375Z,101200.00
2022-11-24T16:43:06.336Z,101201.41
2022-11-24T16:45:33.032Z,101190.94
2022-11-24T16:48:01.787Z,101192.50
2022-11-24T16:50:29.426Z,101197.50
2022-11-24T16:52:56.407Z,101190.50
2022-11-24T16:55:22.981Z,101186.28
2022-11-24T16:57:49.636Z,101187.06
2022-11-24T17:00:16.584Z,101187.88
2022-11-24T17:02:43.187Z,101188.13
2022-11-24T17:05:09.977Z,101195.03
2022-11-24T17:07:36.625Z,101198.88
2022-11-24T17:10:03.524Z,101191.53
2022-11-24T17:12:30.074Z,101190.41
2022-11-24T17:15:24.626Z,101186.91
2022-11-24T17:18:08.489Z,101183.75
2022-11-24T17:20:31.462Z,101188.84
2022-11-24T17:22:58.104Z,101188.06
2022-11-24T17:25:24.634Z,101189.19
2022-11-24T17:27:53.001Z,101182.22
2022-11-24T17:30:19.688Z,101186.84
2022-11-24T17:32:46.361Z,101184.91
2022-11-24T17:35:13.235Z,101194.94
2022-11-24T17:37:39.800Z,101190.75
2022-11-24T17:40:27.264Z,101184.31
2022-11-24T17:42:53.636Z,101187.19
2022-11-24T17:45:20.329Z,101183.50
2022-11-24T17:47:46.911Z,101186.28
2022-11-24T17:50:13.465Z,101184.38
2022-11-24T17:52:40.058Z,101186.72
2022-11-24T17:55:06.880Z,101189.88
2022-11-24T17:57:33.405Z,101196.88
2022-11-24T17:59:59.993Z,101182.91
2022-11-24T18:02:26.648Z,101185.94
2022-11-24T18:04:53.272Z,101184.72
2022-11-24T18:07:19.914Z,101186.66
2022-11-24T18:09:46.800Z,101188.94
2022-11-24T18:12:13.497Z,101187.44
2022-11-24T18:14:40.047Z,101194.50
2022-11-24T18:17:06.898Z,101186.47
2022-11-24T18:19:33.565Z,101192.66
2022-11-24T18:22:00.086Z,101198.16
2022-11-24T18:24:26.602Z,101202.16
2022-11-24T18:26:53.193Z,101195.63
2022-11-24T18:29:19.742Z,101183.56
2022-11-24T18:31:46.499Z,101191.78
2022-11-24T18:34:13.237Z,101183.22
2022-11-24T18:36:39.817Z,101179.38
2022-11-24T18:39:08.214Z,101179.09
2022-11-24T18:41:35.850Z,101176.41
2022-11-24T18:44:03.319Z,101180.66
2022-11-24T18:46:30.121Z,101181.03
2022-11-24T18:48:56.778Z,101178.34
2022-11-24T18:51:23.624Z,101182.59
2022-11-24T18:53:54.430Z,101184.63
2022-11-24T18:56:21.307Z,101180.31
2022-11-24T18:58:47.849Z,101179.44
2022-11-24T19:01:16.761Z,101177.81
2022-11-24T19:03:49.000Z,101182.53
2022-11-24T19:06:23.907Z,101174.41
2022-11-24T19:08:53.861Z,101167.06
2022-11-24T19:11:23.061Z,101172.09
2022-11-24T19:13:50.493Z,101164.78
2022-11-24T19:16:19.663Z,101164.78
2022-11-24T19:18:53.714Z,101166.34
2022-11-24T19:21:22.021Z,101168.28
2022-11-24T19:23:49.457Z,101165.13
2022-11-24T19:26:16.135Z,101164.34
2022-11-24T19:28:42.797Z,101151.50
2022-11-24T19:31:13.815Z,101152.75
2022-11-24T19:33:41.743Z,101151.94
2022-11-24T19:36:12.293Z,101152.31
2022-11-24T19:38:39.571Z,101148.03
2022-11-24T19:41:12.080Z,101142.28
2022-11-24T19:43:39.800Z,101149.53
2022-11-24T19:46:08.805Z,101149.19
2022-11-24T19:48:37.826Z,101149.53
2022-11-24T19:51:10.303Z,101157.97
2022-11-24T19:53:37.963Z,101151.00
2022-11-24T19:56:06.016Z,101152.94
2022-11-24T19:58:32.775Z,101154.94
2022-11-24T20:01:11.166Z,101164.59
2022-11-24T20:03:38.956Z,101166.91
2022-11-24T20:06:07.446Z,101161.84
2022-11-24T20:11:28.968Z,101163.34
2022-11-24T20:13:56.631Z,101161.06
2022-11-24T20:16:28.250Z,101161.84
2022-11-24T20:18:57.176Z,101155.72
2022-11-24T20:21:28.547Z,101159.56
2022-11-24T20:24:07.760Z,101159.19
2022-11-24T20:26:37.938Z,101163.41
2022-11-24T20:29:06.756Z,101159.56
2022-11-24T20:31:38.646Z,101146.38
2022-11-24T20:34:06.652Z,101149.44
2022-11-24T20:36:34.906Z,101141.75
2022-11-24T20:39:10.470Z,101154.41
2022-11-24T20:41:38.974Z,101157.56
2022-11-24T20:44:08.503Z,101155.72
2022-11-24T20:46:37.711Z,101155.72
2022-11-24T20:49:05.731Z,101156.88
2022-11-24T20:51:34.790Z,101142.56
2022-11-24T20:54:04.052Z,101142.97
2022-11-24T20:56:33.119Z,101146.91
2022-11-24T20:59:00.239Z,101151.50
2022-11-24T21:01:30.491Z,101152.75
2022-11-24T21:03:59.086Z,101154.75
2022-11-24T21:06:28.100Z,101143.91
2022-11-24T21:09:00.467Z,101145.84
2022-11-24T21:11:30.277Z,101160.59
2022-11-24T21:13:57.289Z,101145.56
2022-11-24T21:16:29.660Z,101147.13
2022-11-24T21:18:59.379Z,101154.56
2022-11-24T21:24:26.152Z,101147.63
2022-11-24T21:26:53.129Z,101136.81
2022-11-24T21:29:23.389Z,101141.06
2022-11-24T21:31:50.295Z,101146.50
2022-11-24T21:34:19.019Z,101136.81
2022-11-24T21:36:46.016Z,101136.47
2022-11-24T21:39:14.654Z,101132.25
2022-11-24T21:41:42.100Z,101136.53
2022-11-24T21:44:10.403Z,101131.09
2022-11-24T21:46:44.118Z,101129.56
2022-11-24T21:49:14.701Z,101132.25
2022-11-24T21:51:41.392Z,101122.13
2022-11-24T21:54:08.320Z,101127.53
2022-11-24T21:56:37.686Z,101117.50
2022-11-24T21:59:04.473Z,101121.44
2022-11-24T22:01:31.132Z,101122.22
2022-11-24T22:03:57.870Z,101118.72
2022-11-24T22:06:24.660Z,101115.63
2022-11-24T22:08:51.403Z,101110.22
2022-11-24T22:11:21.626Z,101112.59
2022-11-24T22:13:48.957Z,101104.03
2022-11-24T22:16:18.624Z,101100.97
2022-11-24T22:18:45.812Z,101106.03
2022-11-24T22:21:15.741Z,101101.84
2022-11-24T22:23:43.301Z,101109.19
2022-11-24T22:26:15.537Z,101101.06
2022-11-24T22:28:43.153Z,101110.72
2022-11-24T22:31:12.991Z,101105.66
2022-11-24T22:33:39.790Z,101107.94
2022-11-24T22:36:06.930Z,101110.31
2022-11-24T22:38:34.759Z,101106.81
2022-11-24T22:41:04.652Z,101104.13
2022-11-24T22:43:34.322Z,101095.63
2022-11-24T22:46:06.907Z,101104.16
2022-11-24T22:48:34.058Z,101098.75
2022-11-24T22:51:03.836Z,101100.69
2022-11-24T22:53:30.462Z,101098.34
2022-11-24T22:56:01.407Z,101106.47
2022-11-24T22:58:28.016Z,101103.75
2022-11-24T23:00:55.642Z,101108.03
2022-11-24T23:03:22.542Z,101110.31
2022-11-24T23:05:49.333Z,101110.72
2022-11-24T23:08:15.983Z,101117.38
2022-11-24T23:10:42.618Z,101106.19
2022-11-24T23:13:10.654Z,101118.56
2022-11-24T23:15:37.246Z,101108.13
2022-11-24T23:18:05.304Z,101106.97
2022-11-24T23:20:31.934Z,101099.63
2022-11-24T23:22:58.607Z,101102.69
2022-11-24T23:25:25.216Z,101103.47
2022-11-24T23:27:51.808Z,101105.03
2022-11-24T23:30:22.810Z,101098.50
2022-11-24T23:32:49.359Z,101096.22
2022-11-24T23:35:15.976Z,101089.97
2022-11-24T23:38:06.495Z,101091.91
2022-11-24T23:40:31.433Z,101089.22
2022-11-24T23:42:57.970Z,101089.97
2022-11-24T23:45:24.722Z,101087.72
2022-11-24T23:47:53.988Z,101084.66
2022-11-24T23:50:22.574Z,101086.59
2022-11-24T23:53:07.940Z,101089.28
2022-11-24T23:56:05.368Z,101092.34
2022-11-24T23:58:34.823Z,101093.84
